Time;durP1;ratioP1;P1;durP2;ratioP2;P2;SDS_P1;SDS_P2;PMS_P1;PMS_P2;Temp;Humidity;BMP_temperature;BMP_pressure;BME280_temperature;BME280_humidity;BME280_pressure;Samples;Min_cycle;Max_cycle;Signal;HPM_P1;HPM_P2
2023/07/13 00:00:28;;;;;;;6.15;5.35;;;21.30;90.60;;;;;;4997577;28;20111;-62
2023/07/13 00:02:54;;;;;;;9.38;5.47;;;21.40;90.70;;;;;;4997534;28;20586;-63
2023/07/13 00:05:23;;;;;;;8.40;5.57;;;21.40;90.70;;;;;;4998078;28;20413;-64
2023/07/13 00:07:50;;;;;;;5.93;4.97;;;21.40;90.70;;;;;;4997462;28;20086;-63
2023/07/13 00:10:17;;;;;;;10.90;5.78;;;21.40;90.60;;;;;;4999861;28;20533;-64
2023/07/13 00:12:43;;;;;;;8.68;5.65;;;21.40;90.60;;;;;;4999038;28;20045;-63
2023/07/13 00:15:22;;;;;;;10.48;6.43;;;21.40;90.60;;;;;;4998242;28;20128;-63
2023/07/13 00:17:57;;;;;;;7.97;5.88;;;21.50;90.80;;;;;;5000433;28;20445;-62
2023/07/13 00:20:24;;;;;;;10.05;6.43;;;21.50;90.90;;;;;;4998040;28;20050;-63
2023/07/13 00:22:53;;;;;;;11.68;6.63;;;21.40;90.70;;;;;;4998995;28;20529;-62
2023/07/13 00:25:24;;;;;;;8.00;5.97;;;21.40;90.80;;;;;;5002983;28;20038;-63
2023/07/13 00:27:50;;;;;;;10.00;5.75;;;21.40;90.90;;;;;;5002309;28;20408;-63
2023/07/13 00:30:16;;;;;;;7.75;5.15;;;21.40;90.90;;;;;;5000473;28;20041;-63
2023/07/13 00:32:44;;;;;;;8.18;4.57;;;21.30;90.80;;;;;;5000067;28;20026;-62
2023/07/13 00:35:13;;;;;;;10.10;4.80;;;21.30;90.50;;;;;;4999198;28;20042;-63
2023/07/13 00:37:38;;;;;;;7.90;4.45;;;21.30;90.20;;;;;;4999960;28;20062;-63
2023/07/13 00:40:05;;;;;;;5.85;4.60;;;21.20;90.10;;;;;;5000797;28;20592;-61
2023/07/13 00:42:31;;;;;;;6.68;4.55;;;21.20;90.10;;;;;;4997301;28;20446;-62
2023/07/13 00:45:11;;;;;;;6.07;4.30;;;21.20;90.10;;;;;;5000315;28;20042;-64
2023/07/13 00:47:38;;;;;;;8.25;4.13;;;21.20;90.40;;;;;;4997582;28;20030;-62
2023/07/13 00:50:07;;;;;;;8.05;4.28;;;21.20;90.20;;;;;;4999095;28;20030;-62
2023/07/13 00:52:36;;;;;;;5.15;4.10;;;21.20;90.20;;;;;;4998430;28;20045;-62
2023/07/13 00:55:02;;;;;;;5.35;3.75;;;21.20;90.20;;;;;;4996879;28;20117;-62
2023/07/13 00:57:28;;;;;;;4.85;4.00;;;21.20;90.20;;;;;;4999043;28;20048;-63
2023/07/13 00:59:57;;;;;;;5.78;3.70;;;21.20;90.20;;;;;;4998144;28;20042;-63
2023/07/13 01:02:24;;;;;;;3.35;3.05;;;21.20;90.20;;;;;;4998163;28;20038;-62
2023/07/13 01:04:50;;;;;;;3.08;2.78;;;21.20;90.00;;;;;;4997948;28;20038;-63
2023/07/13 01:07:18;;;;;;;4.70;2.40;;;21.30;89.70;;;;;;4997764;28;20341;-60
2023/07/13 01:09:44;;;;;;;2.53;2.13;;;21.30;89.00;;;;;;5000491;28;20184;-63
2023/07/13 01:12:11;;;;;;;5.22;2.10;;;21.20;88.40;;;;;;4996191;28;20026;-61
2023/07/13 01:14:36;;;;;;;7.90;2.03;;;21.20;88.00;;;;;;4998461;28;20045;-62
2023/07/13 01:17:03;;;;;;;3.45;2.05;;;21.20;87.80;;;;;;4995727;28;20033;-63
2023/07/13 01:19:35;;;;;;;4.35;1.70;;;21.20;87.70;;;;;;4997541;28;20087;-62
2023/07/13 01:22:13;;;;;;;3.40;1.73;;;21.20;88.30;;;;;;5000877;28;20605;-63
2023/07/13 01:24:40;;;;;;;2.63;1.50;;;21.10;87.40;;;;;;5006077;28;20060;-64
2023/07/13 01:27:07;;;;;;;3.05;1.38;;;21.10;87.70;;;;;;5004974;28;20120;-64
2023/07/13 01:29:34;;;;;;;1.63;1.52;;;21.10;87.80;;;;;;5004981;28;20119;-62
2023/07/13 01:32:01;;;;;;;5.28;1.90;;;21.10;87.80;;;;;;5001200;28;20100;-62
2023/07/13 01:34:27;;;;;;;5.82;1.92;;;21.10;87.50;;;;;;5001020;28;20529;-63
2023/07/13 01:36:53;;;;;;;2.65;1.80;;;21.10;87.50;;;;;;5002558;28;20470;-61
2023/07/13 01:39:20;;;;;;;3.03;1.70;;;21.00;87.80;;;;;;5003791;28;20066;-63
2023/07/13 01:41:46;;;;;;;3.60;1.75;;;21.10;87.80;;;;;;5004362;28;20026;-63
2023/07/13 01:44:12;;;;;;;2.63;1.65;;;21.00;87.80;;;;;;5003314;28;20044;-61
2023/07/13 01:46:37;;;;;;;2.33;1.90;;;21.00;87.90;;;;;;4999932;28;20121;-61
2023/07/13 01:49:06;;;;;;;2.60;1.77;;;21.00;87.80;;;;;;5001554;28;20034;-62
2023/07/13 01:51:31;;;;;;;3.92;2.00;;;21.00;87.40;;;;;;5001576;28;20030;-63
2023/07/13 01:53:57;;;;;;;4.68;1.85;;;21.00;87.40;;;;;;5002259;28;20029;-62
2023/07/13 01:56:23;;;;;;;2.70;1.83;;;21.00;87.60;;;;;;5000568;28;20600;-62
2023/07/13 01:58:49;;;;;;;4.10;1.92;;;20.90;87.60;;;;;;5001386;28;20441;-61
2023/07/13 02:01:14;;;;;;;4.65;1.67;;;20.90;87.30;;;;;;5000180;28;20069;-62
2023/07/13 02:03:40;;;;;;;3.83;2.05;;;20.90;87.30;;;;;;5001076;28;20037;-61
2023/07/13 02:06:06;;;;;;;2.88;1.73;;;20.90;87.10;;;;;;5001173;28;20042;-63
2023/07/13 02:08:32;;;;;;;3.28;1.77;;;20.80;87.20;;;;;;4999515;28;20042;-62
2023/07/13 02:10:58;;;;;;;3.08;2.25;;;20.80;87.30;;;;;;4999627;28;20092;-62
2023/07/13 02:13:23;;;;;;;2.47;1.98;;;20.80;87.40;;;;;;5000896;28;20121;-61
2023/07/13 02:15:52;;;;;;;2.58;2.10;;;20.70;87.50;;;;;;5001623;28;20061;-62
2023/07/13 02:18:18;;;;;;;2.50;1.80;;;20.70;87.50;;;;;;5005730;28;20041;-63
2023/07/13 02:20:44;;;;;;;3.65;2.30;;;20.60;87.50;;;;;;5002432;28;20508;-62
2023/07/13 02:23:10;;;;;;;2.58;2.20;;;20.60;87.50;;;;;;5001227;28;20041;-63
2023/07/13 02:25:36;;;;;;;3.58;2.40;;;20.60;87.40;;;;;;4996936;28;20572;-62
2023/07/13 02:28:01;;;;;;;3.80;2.00;;;20.60;87.30;;;;;;5001104;28;20045;-63
2023/07/13 02:30:29;;;;;;;2.70;2.17;;;20.50;87.30;;;;;;5002328;28;20121;-62
2023/07/13 02:32:56;;;;;;;3.35;2.20;;;20.40;87.30;;;;;;5004736;28;20033;-61
2023/07/13 02:35:21;;;;;;;2.03;1.90;;;20.40;87.40;;;;;;5004028;28;20261;-62
2023/07/13 02:37:47;;;;;;;4.38;2.25;;;20.40;87.80;;;;;;5004942;28;20034;-60
2023/07/13 02:40:13;;;;;;;2.50;2.00;;;20.30;88.00;;;;;;5003813;28;20715;-62
2023/07/13 02:42:39;;;;;;;2.55;1.73;;;20.30;88.00;;;;;;5005152;28;20041;-63
2023/07/13 02:45:05;;;;;;;2.33;2.03;;;20.20;87.70;;;;;;5000607;28;20133;-62
2023/07/13 02:47:32;;;;;;;3.72;1.85;;;20.20;88.00;;;;;;5000634;28;20409;-63
2023/07/13 02:49:58;;;;;;;4.05;1.88;;;20.20;87.90;;;;;;5000396;28;20053;-63
2023/07/13 02:52:24;;;;;;;4.18;1.98;;;20.20;87.80;;;;;;5002841;28;20506;-63
2023/07/13 02:54:50;;;;;;;6.35;2.03;;;20.20;87.80;;;;;;5000797;28;20553;-63
2023/07/13 02:57:16;;;;;;;8.60;2.40;;;20.10;87.60;;;;;;4999580;28;20092;-62
2023/07/13 02:59:41;;;;;;;5.45;1.85;;;20.10;87.60;;;;;;4998948;28;20521;-63
2023/07/13 03:02:07;;;;;;;2.72;2.17;;;20.00;87.70;;;;;;5001759;28;20406;-61
2023/07/13 03:04:36;;;;;;;3.45;2.00;;;20.00;87.90;;;;;;4999062;28;20041;-63
2023/07/13 03:07:03;;;;;;;2.00;1.80;;;20.00;88.00;;;;;;4999983;28;20038;-62
2023/07/13 03:09:29;;;;;;;2.58;1.80;;;19.90;87.90;;;;;;4998467;28;20042;-62
2023/07/13 03:11:55;;;;;;;2.28;1.60;;;19.90;88.00;;;;;;4998963;28;20045;-62
2023/07/13 03:14:24;;;;;;;1.88;1.65;;;19.90;88.10;;;;;;5003376;28;20378;-61
2023/07/13 03:16:49;;;;;;;4.88;1.63;;;19.80;88.20;;;;;;4998880;28;20042;-62
2023/07/13 03:19:15;;;;;;;3.03;1.48;;;19.80;88.50;;;;;;4999695;28;20420;-62
2023/07/13 03:21:41;;;;;;;3.75;1.77;;;19.80;88.80;;;;;;5000982;28;20041;-61
2023/07/13 03:24:07;;;;;;;4.50;2.08;;;19.80;88.60;;;;;;5002169;28;20087;-62
2023/07/13 03:26:32;;;;;;;3.45;1.60;;;19.90;88.70;;;;;;4999657;28;20041;-61
2023/07/13 03:28:58;;;;;;;4.75;1.85;;;19.90;88.70;;;;;;5002559;28;20034;-64
2023/07/13 03:31:30;;;;;;;2.03;1.48;;;19.80;88.30;;;;;;4999114;28;20107;-62
2023/07/13 03:33:57;;;;;;;2.78;1.70;;;19.90;88.20;;;;;;4998763;28;20077;-63
2023/07/13 03:36:25;;;;;;;5.53;1.98;;;19.80;88.40;;;;;;4998242;28;20038;-62
2023/07/13 03:38:53;;;;;;;3.53;1.50;;;19.80;88.60;;;;;;4998518;28;20405;-61
2023/07/13 03:41:20;;;;;;;3.90;1.60;;;19.80;88.50;;;;;;4997985;28;20044;-62
2023/07/13 03:43:47;;;;;;;1.80;1.60;;;19.80;88.30;;;;;;4999215;28;20034;-62
2023/07/13 03:46:14;;;;;;;4.45;1.77;;;19.80;88.30;;;;;;4997962;28;20045;-61
2023/07/13 03:48:42;;;;;;;2.35;1.50;;;19.80;88.00;;;;;;4999890;28;20038;-62
2023/07/13 03:51:08;;;;;;;3.53;1.80;;;19.90;88.00;;;;;;5000042;28;20124;-62
2023/07/13 03:53:39;;;;;;;2.17;1.55;;;19.80;88.30;;;;;;5001586;28;20107;-62
2023/07/13 03:56:04;;;;;;;3.72;1.48;;;19.80;88.60;;;;;;5000137;28;20151;-61
2023/07/13 03:58:33;;;;;;;3.17;1.45;;;19.80;88.60;;;;;;4999283;28;20125;-62
2023/07/13 04:01:00;;;;;;;3.42;1.30;;;19.80;88.80;;;;;;4996906;28;20048;-62
2023/07/13 04:03:27;;;;;;;3.22;1.65;;;19.90;88.80;;;;;;4999403;28;20541;-60
2023/07/13 04:06:00;;;;;;;2.20;1.55;;;19.90;88.60;;;;;;4996625;28;20507;-62
2023/07/13 04:08:33;;;;;;;3.53;1.40;;;19.90;88.30;;;;;;4999010;28;20461;-60
2023/07/13 04:11:00;;;;;;;2.08;1.30;;;19.90;88.30;;;;;;4997689;28;20048;-61
2023/07/13 04:13:26;;;;;;;2.85;1.20;;;19.90;88.20;;;;;;4999558;28;20045;-61
2023/07/13 04:15:53;;;;;;;3.47;1.50;;;19.90;88.30;;;;;;4997477;28;20048;-61
2023/07/13 04:18:19;;;;;;;3.33;1.45;;;19.90;88.20;;;;;;5004181;28;20392;-62
2023/07/13 04:20:46;;;;;;;2.85;1.33;;;19.90;88.00;;;;;;4996452;28;20108;-61
2023/07/13 04:23:12;;;;;;;2.70;1.30;;;20.00;88.00;;;;;;5000351;28;20038;-61
2023/07/13 04:25:37;;;;;;;2.92;1.25;;;19.90;88.00;;;;;;4993056;28;20034;-62
2023/07/13 04:28:04;;;;;;;3.47;1.05;;;19.90;88.00;;;;;;4996473;28;20035;-63
2023/07/13 04:30:32;;;;;;;1.67;1.30;;;19.90;87.90;;;;;;4994790;28;20255;-62
2023/07/13 04:32:58;;;;;;;4.47;1.40;;;19.90;88.00;;;;;;4996585;28;20423;-61
2023/07/13 04:35:23;;;;;;;2.95;1.23;;;19.90;87.10;;;;;;5000996;28;20421;-62
2023/07/13 04:37:50;;;;;;;2.35;1.20;;;19.90;87.10;;;;;;4998027;28;20034;-62
2023/07/13 04:40:17;;;;;;;1.67;1.30;;;19.90;86.70;;;;;;4997993;28;20038;-62
2023/07/13 04:42:46;;;;;;;3.42;1.10;;;19.90;86.30;;;;;;4995310;28;20088;-63
2023/07/13 04:45:13;;;;;;;3.88;1.35;;;19.80;86.40;;;;;;4995138;28;20057;-63
2023/07/13 04:47:39;;;;;;;1.92;1.38;;;19.80;86.90;;;;;;4997188;28;20045;-63
2023/07/13 04:50:06;;;;;;;2.28;1.70;;;19.70;87.40;;;;;;4997429;28;20038;-60
2023/07/13 04:52:32;;;;;;;1.40;1.30;;;19.70;87.30;;;;;;4996689;28;20061;-63
2023/07/13 04:54:59;;;;;;;2.00;1.27;;;19.70;87.20;;;;;;5002030;28;20994;-61
2023/07/13 04:57:25;;;;;;;2.67;1.33;;;19.70;87.30;;;;;;5004938;28;20042;-61
2023/07/13 04:59:50;;;;;;;2.80;1.30;;;19.70;87.60;;;;;;5005113;28;20037;-62
2023/07/13 05:02:16;;;;;;;2.45;1.50;;;19.70;88.00;;;;;;5005427;28;20091;-62
2023/07/13 05:04:41;;;;;;;1.83;1.30;;;19.70;88.00;;;;;;5004692;28;20132;-61
2023/07/13 05:07:07;;;;;;;4.45;1.52;;;19.80;88.30;;;;;;5004731;28;20541;-62
2023/07/13 05:09:33;;;;;;;2.28;1.40;;;19.80;88.20;;;;;;5005083;28;20460;-63
2023/07/13 05:11:58;;;;;;;2.30;1.30;;;19.70;88.00;;;;;;5003895;28;20025;-61
2023/07/13 05:14:24;;;;;;;5.35;1.35;;;19.80;88.00;;;;;;5001328;28;20390;-62
2023/07/13 05:16:49;;;;;;;1.45;1.35;;;19.90;88.10;;;;;;5005784;28;20106;-63
2023/07/13 05:19:15;;;;;;;1.20;1.10;;;19.90;88.30;;;;;;5005514;28;20080;-61
2023/07/13 05:21:41;;;;;;;3.67;1.67;;;19.90;88.30;;;;;;5005980;28;20034;-60
2023/07/13 05:24:06;;;;;;;3.55;1.70;;;19.90;87.60;;;;;;5004350;28;20034;-62
2023/07/13 05:26:32;;;;;;;2.67;1.60;;;19.90;87.40;;;;;;5003852;28;20041;-61
2023/07/13 05:28:58;;;;;;;1.50;1.35;;;19.90;87.40;;;;;;5005188;28;20109;-62
2023/07/13 05:31:24;;;;;;;1.42;1.25;;;20.00;87.80;;;;;;5004072;28;20048;-62
2023/07/13 05:33:49;;;;;;;2.80;1.58;;;20.00;87.80;;;;;;5005366;28;20065;-63
2023/07/13 05:36:15;;;;;;;5.40;1.42;;;20.00;87.10;;;;;;5005485;28;20042;-61
2023/07/13 05:38:43;;;;;;;3.55;1.50;;;20.00;87.40;;;;;;5005221;28;20052;-62
2023/07/13 05:41:09;;;;;;;1.50;1.10;;;20.00;87.30;;;;;;5004828;28;20041;-62
2023/07/13 05:43:34;;;;;;;3.08;1.20;;;20.00;87.40;;;;;;5004408;28;20049;-62
2023/07/13 05:46:00;;;;;;;1.98;1.50;;;20.10;87.40;;;;;;5004950;28;20533;-62
2023/07/13 05:48:26;;;;;;;1.63;1.10;;;20.10;87.70;;;;;;5005199;28;20042;-62
2023/07/13 05:50:57;;;;;;;4.18;1.45;;;20.10;87.30;;;;;;5002926;28;20111;-63
2023/07/13 05:53:22;;;;;;;2.78;1.38;;;20.10;87.10;;;;;;5005901;28;20030;-60
2023/07/13 05:55:49;;;;;;;2.05;1.45;;;20.20;87.40;;;;;;5005300;28;20034;-63
2023/07/13 05:58:17;;;;;;;2.60;1.52;;;20.20;87.00;;;;;;5003137;28;20520;-61
2023/07/13 06:00:42;;;;;;;1.55;1.30;;;20.30;86.40;;;;;;5001154;28;20061;-61
2023/07/13 06:03:08;;;;;;;2.80;1.45;;;20.30;86.90;;;;;;5002836;28;20516;-62
2023/07/13 06:05:35;;;;;;;2.30;1.10;;;20.40;87.00;;;;;;5010643;28;20034;-61
2023/07/13 06:08:01;;;;;;;2.25;1.58;;;20.40;87.40;;;;;;5002481;28;20113;-60
2023/07/13 06:10:27;;;;;;;2.95;1.45;;;20.50;87.10;;;;;;4999010;28;20428;-63
2023/07/13 06:12:52;;;;;;;2.70;1.15;;;20.50;86.30;;;;;;5004657;28;20029;-62
2023/07/13 06:15:18;;;;;;;4.10;1.83;;;20.50;86.10;;;;;;5001454;28;20030;-62
2023/07/13 06:17:43;;;;;;;2.40;1.33;;;20.60;85.30;;;;;;5003311;28;20052;-61
2023/07/13 06:20:09;;;;;;;1.88;1.13;;;20.60;84.90;;;;;;5001041;28;20124;-61
2023/07/13 06:22:35;;;;;;;3.28;1.13;;;20.60;84.00;;;;;;5002011;28;20076;-61
2023/07/13 06:25:00;;;;;;;2.53;1.13;;;20.60;83.30;;;;;;5001280;28;20053;-62
2023/07/13 06:27:29;;;;;;;2.97;1.10;;;20.60;83.30;;;;;;5002536;28;20069;-62
2023/07/13 06:29:54;;;;;;;2.45;1.00;;;20.60;82.60;;;;;;5000618;28;20036;-61
2023/07/13 06:32:20;;;;;;;2.00;1.40;;;20.60;82.80;;;;;;5004004;28;20029;-60
2023/07/13 06:34:46;;;;;;;2.95;1.15;;;20.60;83.00;;;;;;5002897;28;20034;-63
2023/07/13 06:37:11;;;;;;;4.45;1.15;;;20.50;83.60;;;;;;5003127;28;20436;-61
2023/07/13 06:39:37;;;;;;;4.60;1.50;;;20.50;83.40;;;;;;5002521;28;20034;-61
2023/07/13 06:42:03;;;;;;;3.30;1.20;;;20.50;83.00;;;;;;5003452;28;20030;-62
2023/07/13 06:44:28;;;;;;;2.83;1.10;;;20.60;82.90;;;;;;5002504;28;20420;-62
2023/07/13 06:46:54;;;;;;;2.85;1.50;;;20.60;82.50;;;;;;5002408;28;20497;-62
2023/07/13 06:49:22;;;;;;;3.22;1.23;;;20.60;81.30;;;;;;5004045;28;20180;-60
2023/07/13 06:51:48;;;;;;;5.68;1.48;;;20.60;80.40;;;;;;5003260;28;20041;-62
2023/07/13 06:54:13;;;;;;;1.95;1.13;;;20.60;80.00;;;;;;5002909;28;20042;-60
2023/07/13 06:56:39;;;;;;;3.42;1.20;;;20.60;80.00;;;;;;5002252;28;20537;-62
2023/07/13 06:59:05;;;;;;;3.55;1.30;;;20.60;80.50;;;;;;5002595;28;20044;-62
2023/07/13 07:01:30;;;;;;;2.08;1.20;;;20.60;80.50;;;;;;5003694;28;20046;-62
2023/07/13 07:03:56;;;;;;;3.10;1.15;;;20.60;80.50;;;;;;5001204;28;20821;-64
2023/07/13 07:06:23;;;;;;;1.45;1.20;;;20.60;81.50;;;;;;4999261;28;20037;-65
2023/07/13 07:08:49;;;;;;;6.43;1.50;;;20.60;82.20;;;;;;4999870;28;20034;-65
2023/07/13 07:11:25;;;;;;;3.55;1.45;;;20.60;82.70;;;;;;5000265;28;20235;-64
2023/07/13 07:13:52;;;;;;;3.75;1.27;;;20.70;82.20;;;;;;4999318;28;20041;-64
2023/07/13 07:16:19;;;;;;;2.92;1.20;;;20.80;82.80;;;;;;5002430;28;20072;-64
2023/07/13 07:18:46;;;;;;;2.33;1.27;;;20.80;82.70;;;;;;5001838;28;20050;-64
2023/07/13 07:21:12;;;;;;;1.63;1.25;;;20.90;81.40;;;;;;4997387;28;20578;-64
2023/07/13 07:23:37;;;;;;;4.60;1.23;;;20.90;80.50;;;;;;5000649;28;20037;-64
2023/07/13 07:26:03;;;;;;;2.60;1.27;;;20.90;79.40;;;;;;5002127;28;20280;-64
2023/07/13 07:28:29;;;;;;;5.28;1.50;;;21.00;78.40;;;;;;5000617;28;20052;-65
2023/07/13 07:30:56;;;;;;;2.50;1.10;;;21.10;76.80;;;;;;4999052;28;20065;-65
2023/07/13 07:33:22;;;;;;;1.25;0.82;;;21.10;75.80;;;;;;5003677;28;20457;-65
2023/07/13 07:35:48;;;;;;;1.67;1.10;;;21.10;77.00;;;;;;5000896;28;20505;-64
2023/07/13 07:38:14;;;;;;;3.25;1.27;;;21.20;76.10;;;;;;4997890;28;20074;-65
2023/07/13 07:40:41;;;;;;;4.82;1.05;;;21.20;77.00;;;;;;4999302;28;21719;-64
2023/07/13 07:43:08;;;;;;;2.67;1.08;;;21.20;75.40;;;;;;5002439;28;20046;-64
2023/07/13 07:45:37;;;;;;;1.88;1.20;;;21.20;75.40;;;;;;4997717;28;20513;-64
2023/07/13 07:48:04;;;;;;;2.17;0.90;;;21.20;77.00;;;;;;4997705;28;20049;-64
2023/07/13 07:50:30;;;;;;;4.07;1.10;;;21.20;75.80;;;;;;4997272;28;20038;-64
2023/07/13 07:52:58;;;;;;;3.10;1.05;;;21.30;74.70;;;;;;5000546;28;20026;-65
2023/07/13 07:55:27;;;;;;;4.10;1.05;;;21.30;74.20;;;;;;5003393;28;20042;-64
2023/07/13 07:57:55;;;;;;;2.10;1.00;;;21.40;74.70;;;;;;4996686;28;20031;-65
2023/07/13 08:00:21;;;;;;;2.67;1.10;;;21.40;74.00;;;;;;4999207;28;20237;-64
2023/07/13 08:02:48;;;;;;;2.38;1.00;;;21.50;74.20;;;;;;4993860;28;20046;-64
2023/07/13 08:05:16;;;;;;;2.40;1.10;;;21.60;75.10;;;;;;5001522;28;20030;-65
2023/07/13 08:07:42;;;;;;;1.75;0.98;;;21.60;74.20;;;;;;5000496;28;20042;-64
2023/07/13 08:10:08;;;;;;;3.08;1.20;;;21.70;73.20;;;;;;4996728;28;20046;-64
2023/07/13 08:12:39;;;;;;;1.52;0.98;;;21.80;71.30;;;;;;5000474;28;20049;-64
2023/07/13 08:15:06;;;;;;;2.95;1.17;;;21.80;69.70;;;;;;4998230;28;20040;-64
2023/07/13 08:17:32;;;;;;;4.53;0.95;;;21.80;68.90;;;;;;5000409;28;20033;-65
2023/07/13 08:19:57;;;;;;;1.83;0.95;;;21.80;68.60;;;;;;4999555;28;20046;-65
2023/07/13 08:22:23;;;;;;;1.90;1.05;;;21.80;69.80;;;;;;5001209;28;20598;-65
2023/07/13 08:24:55;;;;;;;2.25;0.90;;;21.90;69.70;;;;;;4999356;28;20041;-65
2023/07/13 08:27:22;;;;;;;2.42;0.95;;;21.90;71.20;;;;;;5003124;28;20042;-64
2023/07/13 08:29:48;;;;;;;3.42;1.10;;;21.90;71.10;;;;;;5002961;28;20037;-64
2023/07/13 08:32:14;;;;;;;3.30;1.00;;;21.90;71.40;;;;;;5003416;28;20053;-65
2023/07/13 08:34:40;;;;;;;2.10;1.13;;;21.90;70.60;;;;;;5001439;28;20119;-65
2023/07/13 08:37:06;;;;;;;1.67;0.90;;;21.90;69.90;;;;;;4998057;28;20048;-65
2023/07/13 08:39:32;;;;;;;2.08;0.73;;;22.00;69.70;;;;;;4999051;28;20045;-64
2023/07/13 08:42:05;;;;;;;3.47;1.10;;;21.90;68.10;;;;;;4999357;28;20442;-66
2023/07/13 08:44:56;;;;;;;2.20;0.90;;;21.90;67.40;;;;;;4998996;28;20042;-64
2023/07/13 08:47:24;;;;;;;1.83;0.70;;;22.00;68.00;;;;;;5002552;28;20070;-65
2023/07/13 08:49:53;;;;;;;1.67;0.80;;;22.00;68.90;;;;;;5001819;28;20037;-65
2023/07/13 08:52:41;;;;;;;1.92;0.95;;;22.10;67.80;;;;;;5001796;28;20402;-63
2023/07/13 08:55:17;;;;;;;5.22;0.88;;;22.10;66.70;;;;;;4996474;28;20099;-65
2023/07/13 08:57:46;;;;;;;1.55;0.85;;;22.10;63.90;;;;;;4999830;28;20081;-64
2023/07/13 09:00:14;;;;;;;6.55;0.80;;;22.20;65.00;;;;;;4999227;28;20196;-65
2023/07/13 09:02:59;;;;;;;2.22;1.00;;;22.20;66.90;;;;;;4997598;28;20429;-64
2023/07/13 09:05:35;;;;;;;2.53;0.98;;;22.20;65.90;;;;;;4996389;28;20034;-65
2023/07/13 09:08:25;;;;;;;2.85;0.90;;;22.30;65.50;;;;;;4999120;28;20068;-65
2023/07/13 09:11:05;;;;;;;3.45;0.73;;;22.40;65.70;;;;;;4999019;28;20453;-65
2023/07/13 09:13:48;;;;;;;2.15;0.70;;;22.50;65.20;;;;;;5002533;28;20066;-64
2023/07/13 09:16:14;;;;;;;2.25;0.90;;;22.50;65.80;;;;;;5000551;28;20034;-64
2023/07/13 09:18:45;;;;;;;3.35;1.85;;;22.50;65.40;;;;;;5000242;28;20682;-64
2023/07/13 09:21:42;;;;;;;3.28;1.20;;;22.60;65.90;;;;;;4998103;28;20133;-64
2023/07/13 09:24:35;;;;;;;1.30;0.90;;;22.60;64.70;;;;;;4989707;28;20044;-63
2023/07/13 09:27:03;;;;;;;1.75;0.73;;;22.70;64.00;;;;;;4998611;28;20397;-65
2023/07/13 09:29:34;;;;;;;1.65;0.77;;;22.80;64.50;;;;;;5000707;28;20034;-64
2023/07/13 09:32:04;;;;;;;8.05;0.95;;;22.80;62.50;;;;;;5001385;28;20046;-64
2023/07/13 09:34:32;;;;;;;1.20;0.75;;;22.70;62.90;;;;;;4999235;28;20145;-64
2023/07/13 09:36:57;;;;;;;2.53;0.90;;;22.80;64.30;;;;;;5002379;28;20034;-64
2023/07/13 09:39:38;;;;;;;2.25;1.00;;;22.80;64.50;;;;;;5000216;28;20038;-65
2023/07/13 09:42:22;;;;;;;1.63;0.90;;;22.90;63.40;;;;;;5003654;28;20049;-64
2023/07/13 09:44:52;;;;;;;2.08;0.80;;;23.00;63.50;;;;;;5004682;28;20128;-65
2023/07/13 09:47:26;;;;;;;3.03;0.80;;;23.10;64.00;;;;;;5004234;28;20034;-64
2023/07/13 09:50:00;;;;;;;4.20;1.10;;;23.20;62.90;;;;;;5006269;28;20398;-65
2023/07/13 09:52:27;;;;;;;2.00;0.83;;;23.30;61.30;;;;;;5005066;28;20241;-65
2023/07/13 09:54:58;;;;;;;2.30;0.77;;;23.40;61.40;;;;;;4998826;28;22035;-64
2023/07/13 09:57:27;;;;;;;1.95;0.80;;;23.50;59.70;;;;;;5002812;28;20042;-64
2023/07/13 09:59:56;;;;;;;4.07;1.00;;;23.60;60.10;;;;;;5002102;28;20083;-63
2023/07/13 10:02:28;;;;;;;1.27;0.85;;;23.70;60.10;;;;;;5002523;28;20045;-65
2023/07/13 10:05:04;;;;;;;1.60;0.93;;;23.80;59.20;;;;;;5004213;28;20101;-65
2023/07/13 10:07:31;;;;;;;2.40;0.70;;;23.80;57.40;;;;;;5006404;28;20057;-64
2023/07/13 10:10:00;;;;;;;1.25;0.80;;;24.00;58.50;;;;;;5005642;28;20061;-65
2023/07/13 10:12:30;;;;;;;4.30;1.15;;;24.10;58.80;;;;;;5004392;28;20037;-65
2023/07/13 10:15:00;;;;;;;2.65;0.70;;;24.10;59.60;;;;;;5005390;28;20991;-65
2023/07/13 10:17:30;;;;;;;2.17;0.80;;;24.20;59.70;;;;;;5003705;28;20072;-65
2023/07/13 10:20:04;;;;;;;2.67;0.90;;;24.30;58.50;;;;;;5003540;28;20072;-66
2023/07/13 10:22:59;;;;;;;0.90;0.70;;;24.30;58.90;;;;;;5004810;28;20045;-64
2023/07/13 10:25:28;;;;;;;2.03;0.85;;;24.30;58.50;;;;;;5006080;28;21014;-64
2023/07/13 10:28:00;;;;;;;1.52;0.70;;;24.40;58.40;;;;;;5004319;28;20116;-65
2023/07/13 10:30:30;;;;;;;2.28;1.00;;;24.30;58.00;;;;;;5003739;28;20498;-65
2023/07/13 10:33:02;;;;;;;2.08;0.80;;;24.40;58.00;;;;;;5005411;28;20141;-65
2023/07/13 10:35:30;;;;;;;1.73;0.90;;;24.40;57.80;;;;;;5000089;28;20042;-64
2023/07/13 10:38:07;;;;;;;1.23;0.80;;;24.50;57.40;;;;;;5001949;28;20057;-64
2023/07/13 10:40:43;;;;;;;2.28;0.73;;;24.60;57.40;;;;;;5001177;28;20033;-65
2023/07/13 10:43:20;;;;;;;2.20;0.80;;;24.60;56.00;;;;;;5001828;28;20509;-64
2023/07/13 10:45:49;;;;;;;2.15;0.98;;;24.70;55.20;;;;;;5004044;28;20691;-65
2023/07/13 10:48:17;;;;;;;3.53;0.90;;;24.70;53.70;;;;;;5004921;28;20038;-65
2023/07/13 10:50:46;;;;;;;3.25;0.80;;;24.80;54.30;;;;;;5003939;28;20034;-65
2023/07/13 10:53:20;;;;;;;1.23;0.65;;;24.80;53.40;;;;;;5002869;28;20578;-65
2023/07/13 10:55:48;;;;;;;1.43;0.57;;;24.80;53.40;;;;;;4998274;28;20571;-65
2023/07/13 10:58:18;;;;;;;2.55;0.63;;;24.80;53.80;;;;;;5001021;28;20034;-64
2023/07/13 11:00:58;;;;;;;5.82;0.90;;;24.90;53.30;;;;;;4999387;28;20061;-64
2023/07/13 11:03:28;;;;;;;1.20;0.70;;;24.90;52.40;;;;;;5001675;28;20417;-65
2023/07/13 11:06:25;;;;;;;0.75;0.50;;;25.00;53.80;;;;;;5002173;28;20413;-65
2023/07/13 11:08:53;;;;;;;2.00;0.98;;;25.00;52.80;;;;;;4990804;28;20038;-64
2023/07/13 11:11:34;;;;;;;1.65;0.70;;;25.00;53.50;;;;;;4998120;28;20052;-65
2023/07/13 11:14:25;;;;;;;1.27;0.82;;;25.10;54.00;;;;;;5003797;28;20037;-66
2023/07/13 11:16:51;;;;;;;1.20;0.60;;;25.10;54.90;;;;;;5003543;28;20044;-65
2023/07/13 11:19:16;;;;;;;1.65;0.70;;;25.30;55.00;;;;;;4999670;28;20037;-65
2023/07/13 11:22:13;;;;;;;1.48;0.90;;;25.40;54.60;;;;;;5001988;28;20041;-65
2023/07/13 11:24:58;;;;;;;1.95;0.80;;;25.50;53.50;;;;;;5000542;28;20030;-65
2023/07/13 11:27:39;;;;;;;2.28;0.77;;;25.50;53.80;;;;;;5003322;28;20050;-65
2023/07/13 11:30:27;;;;;;;1.48;0.77;;;25.50;53.90;;;;;;4999468;28;20087;-65
2023/07/13 11:33:21;;;;;;;1.33;0.77;;;25.50;53.50;;;;;;5002313;28;20129;-65
2023/07/13 11:36:04;;;;;;;2.75;0.70;;;25.50;54.40;;;;;;4999306;28;20075;-65
2023/07/13 11:38:39;;;;;;;1.17;0.80;;;25.50;53.50;;;;;;4999418;28;20047;-65
2023/07/13 11:41:18;;;;;;;5.25;0.70;;;25.40;54.00;;;;;;5002027;28;20030;-65
2023/07/13 11:43:45;;;;;;;2.08;0.80;;;25.40;53.40;;;;;;5002473;28;20516;-66
2023/07/13 11:46:16;;;;;;;1.65;0.85;;;25.40;54.40;;;;;;5000935;28;20033;-65
2023/07/13 11:48:44;;;;;;;1.33;0.90;;;25.30;53.20;;;;;;5002905;28;20022;-66
2023/07/13 11:51:19;;;;;;;1.58;0.70;;;25.20;53.80;;;;;;5001223;28;20104;-65
2023/07/13 11:53:47;;;;;;;1.70;0.60;;;25.20;53.50;;;;;;5001152;28;20045;-64
2023/07/13 11:56:13;;;;;;;3.03;0.68;;;25.20;53.90;;;;;;5001446;28;20046;-65
2023/07/13 11:58:42;;;;;;;1.85;0.73;;;25.20;54.20;;;;;;5000538;28;20048;-65
2023/07/13 12:01:26;;;;;;;4.78;0.85;;;25.20;54.20;;;;;;4998967;28;20061;-65
2023/07/13 12:03:53;;;;;;;5.55;1.10;;;25.10;53.80;;;;;;5001202;28;20057;-65
2023/07/13 12:06:29;;;;;;;1.55;0.90;;;25.10;54.60;;;;;;4999665;28;20069;-65
2023/07/13 12:09:00;;;;;;;3.63;0.70;;;25.00;53.50;;;;;;5002145;28;20494;-65
2023/07/13 12:11:26;;;;;;;2.35;0.85;;;25.00;54.60;;;;;;5005419;28;20405;-65
2023/07/13 12:13:52;;;;;;;1.90;0.90;;;25.00;55.40;;;;;;5005227;28;20041;-65
2023/07/13 12:16:30;;;;;;;1.98;0.82;;;25.00;55.60;;;;;;5001269;28;20261;-65
2023/07/13 12:18:56;;;;;;;2.28;1.20;;;25.10;55.00;;;;;;4998493;28;20038;-65
2023/07/13 12:21:37;;;;;;;2.53;1.00;;;25.10;55.80;;;;;;5000135;28;20041;-66
2023/07/13 12:24:04;;;;;;;3.55;0.90;;;25.10;54.90;;;;;;4995678;28;20386;-65
2023/07/13 12:26:31;;;;;;;1.17;0.88;;;25.20;55.20;;;;;;4998292;28;20476;-65
2023/07/13 12:29:00;;;;;;;3.53;0.75;;;25.20;55.30;;;;;;4995835;28;20037;-65
2023/07/13 12:31:30;;;;;;;2.33;0.90;;;25.30;54.70;;;;;;4998883;28;20049;-65
2023/07/13 12:33:58;;;;;;;2.97;0.82;;;25.40;55.00;;;;;;5000519;28;20042;-65
2023/07/13 12:36:25;;;;;;;2.65;1.00;;;25.40;54.50;;;;;;5000147;28;20085;-65
2023/07/13 12:38:51;;;;;;;3.53;0.95;;;25.50;54.70;;;;;;5000571;28;20045;-65
2023/07/13 12:41:17;;;;;;;3.00;1.17;;;25.50;54.70;;;;;;5000578;28;20049;-65
2023/07/13 12:43:45;;;;;;;2.00;0.80;;;25.60;54.70;;;;;;5002050;28;20433;-66
2023/07/13 12:46:23;;;;;;;1.75;0.90;;;25.70;54.20;;;;;;5000760;28;20033;-66
2023/07/13 12:48:53;;;;;;;2.03;1.08;;;25.70;53.60;;;;;;5000450;28;20076;-65
2023/07/13 12:51:22;;;;;;;3.10;0.90;;;25.80;53.50;;;;;;5000507;28;20148;-65
2023/07/13 12:53:53;;;;;;;4.25;0.85;;;25.80;54.20;;;;;;5001914;28;20052;-67